WAGO2: Chouteau Lock And Dam (L&D 17)

Data processed at Thu Dec 07 2017 23:34


All information presented herein is the property of the government of the United States of America and may be revised or deleted at any time without prior notice.
Dissemination of this information without the expressed written consent of the Public Affairs Office, Tulsa District U.S. Army Corps of Engineers is strictly prohibited.
These data are gathered electronically and, as presented, have not undergone any form of quality control. These data are not guaranteed to be valid or correct.
Go to home page.
Go to station list.

Upstream stations:

Downstream station:
Previous Day
Next Day
Current Day
    
SHEF ID:       WAGO2     Chouteau Lock And Dam (L&D 17)
STATION TYPE:  NAVIGATION LOCK
Normal Pool:  Bottom =   511.50, Top =   511.50

               PRECIP ELEVATION   STORAGE   TW-ELEV    INFLOW   RELEASE  AIR-TEMP  WIND-DIRWIND-SPEED REL-HUMID SOLAR-RAD   VOLTAGE  BAT-LOAD
                   in        ft     ac-ft        ft       cfs       cfs         F       deg       mph         %      W/m2      volt      volt
              Ccp-Rev   Ccp-Rev   Ccp-Rev   Ccp-Rev  Regi-Rev  Regi-Rev   Ccp-Rev   Ccp-Rev   Ccp-Rev   Ccp-Rev   Ccp-Rev   Ccp-Rev   Ccp-Rev
(US/Central)
12/05 00:00      0.00    512.03     24918    490.04       204       500     47.21    340.30     12.70     41.94      0.00     13.54     13.03
12/05 01:00      0.00    512.04     24944    489.99       187       500     44.19    338.00     10.40     46.32      0.00     13.57     13.03
12/05 02:00      0.00    512.03     24918    489.91       222       500     41.76    339.60      6.80     53.32      0.00     13.57     13.04
12/05 03:00      0.00    512.01     24866    489.78       216       500     41.36    348.60      8.40     52.34      0.00     13.59     13.04
12/05 04:00      0.00    512.01     24866    489.69        53       500     39.70    341.40     10.00     56.39      0.00     13.58     13.05
12/05 05:00      0.00    512.00     24840    489.83        49       500     37.44    347.00      9.20     57.04      0.00     13.58     13.05
12/05 06:00      0.00    511.97     24772    489.94        44       500     35.85    344.80      9.50     56.06      0.00     13.58     13.03
12/05 07:00      0.00    511.95     24726    490.08         3       500     35.02    346.40     10.00     50.20      0.00     13.57     13.05
12/05 08:00      0.00    511.92     24658    489.92         3       500     34.70    346.50     11.00     46.36      0.00     13.57     13.05
12/05 09:00      0.00    511.92     24658    489.56         3       500     34.66    348.30     10.30     44.40     23.10     13.57     13.06
12/05 10:00      0.00    511.91     24636    489.43         1       500     35.08    349.10      8.60     43.48     40.40     13.54     13.03
12/05 11:00      0.00    512.31     25643    489.26         0       500     35.35    349.30      8.20     42.13     45.50     13.57     13.03
12/05 12:00      0.00    511.98     24795    490.00         0       223     36.34    343.90      8.00     41.15    160.30     13.49     13.04
12/05 13:00      0.00    511.79     24363    489.66         1       223     38.19    342.70      7.90     37.39    258.20     13.55     13.03
12/05 14:00      0.00    511.84     24477    489.77         1         0     39.69    330.00      7.30     36.36    298.10     13.58      ----
12/05 15:00      0.00    511.83     24454    489.80         1         0     41.09    324.30      5.20     33.12    228.00     13.57     13.03
12/05 16:00      0.00    511.84     24477    489.64         1         0     41.59    284.50      3.00     30.62    158.50     13.60     13.03
12/05 17:00      0.00    511.85     24499    489.75         6         0     41.07    256.40      1.70     31.33     55.80     13.58     13.05
12/05 18:00      0.00    511.83     24454    490.02        10         0     38.46    184.00      0.80     36.96      0.00     13.50     13.07
12/05 19:00      0.00    511.80     24386    490.17        26         0     36.23    172.70      1.30     44.22      0.00     13.55     13.09
12/05 20:00      0.00    511.85     24499    489.80        26         0     35.01    153.80      1.60     49.79      0.00     13.60     13.05
12/05 21:00      0.00    511.80     24386    489.48        26         0     34.07    157.00      1.90     46.31      0.00     13.56     13.08
12/05 22:00      0.00    511.86     24522    489.53        21         0     33.04    152.70      1.70     54.84      0.00     13.60     13.06
12/05 23:00      0.00    511.74     24250    489.65        16         0     31.98    159.10      2.10     52.65      0.00     13.55     13.03